Wilson Lahn — 8PUO — position and weather

sailwx.info

Track history (hours):
 
Tides and Currents Weather Stations Pressure Air Temp Water Temp Dewpoint Dewpoint Depression Visibility Wind Speed Wind Dir Waves Ship Positions

Wilson Lahn

Last reported at 2017-Oct-22 20:47 UTC. Time now 2017-Oct-22 23:10 UTC.
Position N 59°43' E 004°38'.

Length 83 m; draft 4.8 m.

Type: Cargo ship. MMSI: 314259000.

Date/timePositionNaut miles runAvg speedWind from/ knotsBaromVisibWave heightAir tempDewpointWater temp
2017-Oct-22 20:47N 59°43' E 004°38'3 9.2
2017-Oct-22 20:30N 59°45' E 004°38'5 9.4
2017-Oct-22 20:00N 59°50' E 004°37'5 9.3
2017-Oct-22 19:30N 59°55' E 004°36'5 9.6
2017-Oct-22 19:00N 59°59' E 004°35'5 9.5
2017-Oct-22 18:30N 60°04' E 004°34'4 8.7
2017-Oct-22 18:00N 60°08' E 004°34'5 8.9
2017-Oct-22 17:30N 60°13' E 004°33'5 9.8
2017-Oct-22 17:00N 60°18' E 004°32'5 9.3
2017-Oct-22 16:30N 60°22' E 004°31'5 9.0
2017-Oct-22 16:00N 60°27' E 004°30'510.0
2017-Oct-22 15:31N 60°32' E 004°29'510.1
2017-Oct-22 15:00N 60°37' E 004°29'5 9.8
2017-Oct-22 14:30N 60°42' E 004°28'5 9.3
2017-Oct-22 14:00N 60°46' E 004°27'5 9.7
2017-Oct-22 13:30N 60°51' E 004°27'5 9.3
2017-Oct-22 13:00N 60°56' E 004°25'5 9.0
2017-Oct-22 12:30N 61°00' E 004°24'4 9.0
2017-Oct-22 12:00N 61°05' E 004°24'5 9.2
2017-Oct-22 11:30N 61°09' E 004°25'5 9.9
2017-Oct-22 11:00N 61°14' E 004°25'510.3
2017-Oct-22 10:30N 61°20' E 004°25'510.7
2017-Oct-22 10:00N 61°25' E 004°27'510.2
2017-Oct-22 09:30N 61°30' E 004°27'510.0
2017-Oct-22 09:00N 61°35' E 004°28'510.0
2017-Oct-22 08:30N 61°40' E 004°29'510.1
2017-Oct-22 08:01N 61°45' E 004°33'5 9.7
2017-Oct-22 07:30N 61°49' E 004°36'5 9.6
2017-Oct-22 06:59N 61°54' E 004°40'5 9.9
2017-Oct-22 06:30N 61°58' E 004°44'510.5
2017-Oct-22 06:00N 62°03' E 004°49'510.8
2017-Oct-22 05:30N 62°08' E 004°55'510.5
2017-Oct-22 05:00N 62°12' E 005°01'5 9.9
2017-Oct-22 04:30N 62°16' E 005°07'510.5
2017-Oct-22 04:00N 62°20' E 005°13'510.9
2017-Oct-22 03:30N 62°25' E 005°20'510.6
2017-Oct-22 03:00N 62°29' E 005°28'610.8
2017-Oct-22 02:30N 62°33' E 005°36'511.0
2017-Oct-22 02:00N 62°37' E 005°44'510.9
2017-Oct-22 01:31N 62°41' E 005°52'611.0
2017-Oct-22 01:00N 62°45' E 005°60'611.1
2017-Oct-22 00:30N 62°49' E 006°08'510.7
2017-Oct-22 00:00N 62°53' E 006°16'510.7
2017-Oct-21 23:30N 62°56' E 006°25'611.0
2017-Oct-21 23:00N 62°59' E 006°35'611.3
2017-Oct-21 22:30N 63°02' E 006°46'611.1
2017-Oct-21 22:00N 63°06' E 006°56'611.0
2017-Oct-21 21:30N 63°09' E 007°06'510.6
2017-Oct-21 21:00N 63°12' E 007°15'510.2
2017-Oct-21 20:30N 63°14' E 007°25'510.5
2017-Oct-21 20:00N 63°15' E 007°36'510.9
2017-Oct-21 19:31N 63°12' E 007°46'611.5
2017-Oct-21 19:00N 63°08' E 007°55'611.1
2017-Oct-21 18:30N 63°07' E 008°07'611.5
2017-Oct-21 18:00N 63°02' E 008°12'612.1
2017-Oct-21 17:30N 62°58' E 008°23'611.1
2017-Oct-21 17:00N 62°59' E 008°35'1 1.8
2017-Oct-21 16:29N 62°59' E 008°36'0 0.0
2017-Oct-21 15:59N 62°59' E 008°36'0 0.0
2017-Oct-21 15:29N 62°59' E 008°36'0 0.0
2017-Oct-21 14:59N 62°59' E 008°36'0 0.0
2017-Oct-21 13:59N 62°59' E 008°36'0 0.0
2017-Oct-21 13:29N 62°59' E 008°36'0 0.0
2017-Oct-21 12:56N 62°59' E 008°36'0 0.0
2017-Oct-21 12:29N 62°59' E 008°36'0 0.0
2017-Oct-21 11:59N 62°59' E 008°36'0 0.0
2017-Oct-21 11:26N 62°59' E 008°36'0 0.0
2017-Oct-21 10:59N 62°59' E 008°36'0 0.0
2017-Oct-21 10:29N 62°59' E 008°36'0 0.0
2017-Oct-21 09:59N 62°59' E 008°36'0 0.0
2017-Oct-21 09:29N 62°59' E 008°36'0 0.0
2017-Oct-21 08:59N 62°59' E 008°36'0 0.0
2017-Oct-21 08:29N 62°59' E 008°36'0 0.0
2017-Oct-21 07:59N 62°59' E 008°36'0 0.0
2017-Oct-21 07:29N 62°59' E 008°36'0 0.0
2017-Oct-21 06:59N 62°59' E 008°36'0 0.0
2017-Oct-21 06:29N 62°59' E 008°36'0 0.0
2017-Oct-21 05:59N 62°59' E 008°36'0 0.0
2017-Oct-21 05:29N 62°59' E 008°36'0 0.0
2017-Oct-21 04:59N 62°59' E 008°36'0 0.0
2017-Oct-21 04:29N 62°59' E 008°36'0 0.0
2017-Oct-21 03:59N 62°59' E 008°36'0 0.0
2017-Oct-21 03:29N 62°59' E 008°36'0 0.0
2017-Oct-21 02:59N 62°59' E 008°36'0 0.0
2017-Oct-21 02:29N 62°59' E 008°36'0 0.0
2017-Oct-21 01:59N 62°59' E 008°36'0 0.0
2017-Oct-21 01:29N 62°59' E 008°36'0 0.0
2017-Oct-21 00:59N 62°59' E 008°36'0 0.0
2017-Oct-21 00:29N 62°59' E 008°36'0 0.0
2017-Oct-20 23:59N 62°59' E 008°36'0 0.0
2017-Oct-20 23:29N 62°59' E 008°36'0 0.0
2017-Oct-20 22:59N 62°59' E 008°36'0 0.0
2017-Oct-20 22:29N 62°59' E 008°36'0 0.0
2017-Oct-20 21:59N 62°59' E 008°36'0 0.0
2017-Oct-20 21:29N 62°59' E 008°36'0 0.0
2017-Oct-20 20:59N 62°59' E 008°36'0 0.0
2017-Oct-20 20:29N 62°59' E 008°36'0 0.0
2017-Oct-20 19:59N 62°59' E 008°36'0 0.0
2017-Oct-20 19:29N 62°59' E 008°36'0 0.0
2017-Oct-20 18:59N 62°59' E 008°36'0 0.0
2017-Oct-20 18:29N 62°59' E 008°36'0 0.0
2017-Oct-20 17:59N 62°59' E 008°36'0 0.0
2017-Oct-20 17:29N 62°59' E 008°36'0 0.0
2017-Oct-20 16:59N 62°59' E 008°36'0 0.0
2017-Oct-20 16:29N 62°59' E 008°36'0 0.0
2017-Oct-20 15:59N 62°59' E 008°36'0 0.0
2017-Oct-20 15:30N 62°59' E 008°36'3 6.0
2017-Oct-20 15:00N 62°58' E 008°31'9 9.0
2017-Oct-20 14:00N 63°02' E 008°13'5 9.9
2017-Oct-20 13:31N 63°06' E 008°08'4 8.7
2017-Oct-20 13:01N 63°07' E 007°59'510.9
2017-Oct-20 12:30N 63°02' E 007°52'510.6
2017-Oct-20 12:00N 62°59' E 007°42'510.2
2017-Oct-20 11:30N 62°56' E 007°33'3 6.4
2017-Oct-20 11:01N 62°56' E 007°26'0 0.0
2017-Oct-20 10:30N 62°56' E 007°26'0 0.0
2017-Oct-20 10:00N 62°56' E 007°26'0 0.0
2017-Oct-20 09:30N 62°56' E 007°26'0 0.0
2017-Oct-20 09:00N 62°56' E 007°26'0 0.0
2017-Oct-20 08:30N 62°56' E 007°26'0 0.0
2017-Oct-20 08:00N 62°56' E 007°26'0 0.0
2017-Oct-20 07:30N 62°56' E 007°26'0 0.0
2017-Oct-20 07:00N 62°56' E 007°26'0 0.0
2017-Oct-20 06:30N 62°56' E 007°26'0 0.0
2017-Oct-20 06:00N 62°56' E 007°26'0 0.0
2017-Oct-20 05:30N 62°56' E 007°26'0 0.0
2017-Oct-20 05:00N 62°56' E 007°26'0 0.0
2017-Oct-20 04:30N 62°56' E 007°26'0 0.0
2017-Oct-20 04:00N 62°56' E 007°26'0 0.0
2017-Oct-20 03:30N 62°56' E 007°26'0 0.1
2017-Oct-20 03:00N 62°56' E 007°26'3 6.4
2017-Oct-20 02:30N 62°56' E 007°33'612.7
2017-Oct-20 02:00N 62°60' E 007°45'612.2
2017-Oct-20 01:30N 63°04' E 007°55'510.6
2017-Oct-20 01:00N 63°09' E 007°51'3 6.2
2017-Oct-20 00:30N 63°12' E 007°51'3 6.0
2017-Oct-20 00:00N 63°13' E 007°56'3 6.5
2017-Oct-19 23:30N 63°15' E 008°03'3 6.4
2017-Oct-19 23:00N 63°17' E 008°09'3 6.5
2017-Oct-19 22:30N 63°19' E 008°15'3 6.6
2017-Oct-19 22:00N 63°21' E 008°20'3 6.9
2017-Oct-19 21:30N 63°23' E 008°27'4 7.7
2017-Oct-19 21:00N 63°24' E 008°34'4 7.3
2017-Oct-19 20:30N 63°26' E 008°42'4 7.3
2017-Oct-19 20:00N 63°27' E 008°50'4 7.7
2017-Oct-19 19:30N 63°28' E 008°57'4 8.0
2017-Oct-19 19:00N 63°30' E 009°06'4 7.1
2017-Oct-19 18:30N 63°32' E 009°13'3 6.4
2017-Oct-19 18:00N 63°35' E 009°16'3 7.1
2017-Oct-19 17:31N 63°38' E 009°15'3 6.9
2017-Oct-19 17:01N 63°42' E 009°15'3 6.7
2017-Oct-19 16:30N 63°45' E 009°16'4 7.4
2017-Oct-19 15:59N 63°49' E 009°19'4 7.7
2017-Oct-19 15:30N 63°52' E 009°22'4 7.7
2017-Oct-19 15:00N 63°55' E 009°25'510.0
2017-Oct-19 14:30N 64°00' E 009°30'510.3
2017-Oct-19 14:00N 64°05' E 009°34'510.2
2017-Oct-19 13:30N 64°10' E 009°38'510.4
2017-Oct-19 13:00N 64°15' E 009°42'510.6
2017-Oct-19 12:30N 64°20' E 009°47'510.5
2017-Oct-19 12:00N 64°25' E 009°50'43 8.8
2017-Oct-19 07:08N 65°05' E 010°26'111.5
2017-Oct-19 07:00N 65°06' E 010°27'611.7
2017-Oct-19 06:29N 65°11' E 010°33'611.2
2017-Oct-19 06:00N 65°17' E 010°38'5 9.2
2017-Oct-19 05:29N 65°21' E 010°42'4 8.6
2017-Oct-19 05:00N 65°25' E 010°45'4 8.8
2017-Oct-19 04:30N 65°29' E 010°49'60 9.0
2017-Oct-18 21:51N 66°25' E 011°44'3 9.0
2017-Oct-18 21:29N 66°28' E 011°47'5 9.3
2017-Oct-18 20:58N 66°32' E 011°52'5 9.3
2017-Oct-18 20:25N 66°37' E 011°57'4 9.7
2017-Oct-18 20:00N 66°40' E 012°03'2310.0
2017-Oct-18 17:43N 66°58' E 012°38'2 9.6
2017-Oct-18 17:30N 67°00' E 012°41'5 9.6
2017-Oct-18 17:00N 67°04' E 012°49'5 9.7
2017-Oct-18 16:30N 67°08' E 012°57'5 9.4
2017-Oct-18 16:00N 67°11' E 013°04'5 9.5
2017-Oct-18 15:30N 67°15' E 013°11'5 9.8
2017-Oct-18 15:00N 67°19' E 013°18'1010.4
2017-Oct-18 14:00N 67°28' E 013°34'510.5
2017-Oct-18 13:30N 67°32' E 013°42'510.0
2017-Oct-18 13:00N 67°36' E 013°50'510.1
2017-Oct-18 12:30N 67°40' E 013°57'510.3
2017-Oct-18 12:00N 67°45' E 014°05'510.1
2017-Oct-18 11:30N 67°49' E 014°12'510.0
2017-Oct-18 11:00N 67°53' E 014°20'510.4
2017-Oct-18 10:30N 67°57' E 014°27'510.1
2017-Oct-18 10:00N 68°01' E 014°35'510.5
2017-Oct-18 09:30N 68°06' E 014°43'510.9
2017-Oct-18 09:00N 68°10' E 014°51'510.6
2017-Oct-18 08:30N 68°15' E 014°57'510.2
2017-Oct-18 08:00N 68°20' E 015°00'510.6
2017-Oct-18 07:30N 68°25' E 015°07'510.0
2017-Oct-18 07:00N 68°29' E 015°13'510.6
2017-Oct-18 06:30N 68°33' E 015°04'3 5.6
2017-Oct-18 06:00N 68°35' E 014°57'0 0.0
2017-Oct-18 05:30N 68°35' E 014°57'0 0.0
2017-Oct-18 05:00N 68°35' E 014°57'0 0.0
2017-Oct-18 04:30N 68°35' E 014°57'0 0.0
2017-Oct-18 04:00N 68°35' E 014°57'0 0.0
2017-Oct-18 03:30N 68°35' E 014°57'0 0.0
2017-Oct-18 03:00N 68°35' E 014°57'0 0.0
2017-Oct-18 02:30N 68°35' E 014°57'0 0.0
2017-Oct-18 02:00N 68°35' E 014°57'0 0.0
2017-Oct-18 01:30N 68°35' E 014°57'0 0.0
2017-Oct-18 01:00N 68°35' E 014°57'0 0.0
2017-Oct-18 00:30N 68°34' E 014°57'0 0.0
2017-Oct-18 00:00N 68°35' E 014°57'0 0.0
2017-Oct-17 23:30N 68°35' E 014°57'0 0.0
2017-Oct-17 23:00N 68°35' E 014°57'0 0.0
2017-Oct-17 22:30N 68°35' E 014°57'0 0.0
2017-Oct-17 22:00N 68°35' E 014°57'0 0.0
2017-Oct-17 21:30N 68°35' E 014°57'0 0.0
2017-Oct-17 21:00N 68°35' E 014°57'0 0.0
2017-Oct-17 20:30N 68°34' E 014°57'0 0.0
2017-Oct-17 20:00N 68°35' E 014°57'0 0.0
2017-Oct-17 19:30N 68°35' E 014°57'0 0.0
2017-Oct-17 19:00N 68°35' E 014°57'0 0.0
2017-Oct-17 18:30N 68°35' E 014°57'0 0.0
2017-Oct-17 18:00N 68°35' E 014°57'0 0.0
2017-Oct-17 17:30N 68°35' E 014°57'0 0.0
2017-Oct-17 17:00N 68°35' E 014°57'0 0.0
2017-Oct-17 16:30N 68°35' E 014°57'0 0.0
2017-Oct-17 16:00N 68°35' E 014°57'1 1.7
2017-Oct-17 15:30N 68°34' E 014°59'611.0
2017-Oct-17 15:00N 68°30' E 015°10'5 9.6
2017-Oct-17 14:30N 68°26' E 015°09'510.7
2017-Oct-17 14:00N 68°21' E 015°02'611.0
2017-Oct-17 13:30N 68°16' E 014°57'4 8.0
2017-Oct-17 13:00N 68°12' E 015°03'611.0
2017-Oct-17 12:30N 68°13' E 015°18'511.0
2017-Oct-17 12:00N 68°13' E 015°33'1 2.3
2017-Oct-17 11:29N 68°12' E 015°32'2 5.0
2017-Oct-17 11:00N 68°10' E 015°27'3 5.5
2017-Oct-17 10:30N 68°08' E 015°21'3 5.6
2017-Oct-17 10:00N 68°07' E 015°16'3 5.9
2017-Oct-17 09:30N 68°05' E 015°09'4 7.2
2017-Oct-17 09:01N 68°03' E 015°02'4 7.4
2017-Oct-17 08:30N 68°00' E 014°54'4 7.3
2017-Oct-17 08:00N 67°58' E 014°46'4 7.2
2017-Oct-17 07:30N 67°56' E 014°39'3 6.9
2017-Oct-17 07:00N 67°54' E 014°32'510.4
2017-Oct-17 06:30N 67°50' E 014°22'611.5
2017-Oct-17 06:00N 67°46' E 014°12'4 7.3
2017-Oct-17 05:30N 67°43' E 014°05'4 7.5
2017-Oct-17 05:01N 67°40' E 013°60'4 7.4
2017-Oct-17 04:30N 67°37' E 013°53'4 7.3
2017-Oct-17 04:00N 67°34' E 013°48'4 7.4
2017-Oct-17 03:30N 67°31' E 013°42'4 8.2
2017-Oct-17 03:00N 67°28' E 013°35'4 8.9
2017-Oct-17 02:30N 67°25' E 013°28'510.0
2017-Oct-17 02:00N 67°21' E 013°20'510.9
2017-Oct-17 01:30N 67°16' E 013°12'510.7
2017-Oct-17 01:00N 67°12' E 013°05'610.8
2017-Oct-17 00:29N 67°07' E 012°56'510.9
2017-Oct-17 00:00N 67°03' E 012°48'510.4
2017-Oct-16 23:30N 66°59' E 012°40'2710.6
2017-Oct-16 20:59N 66°37' E 011°59'811.8
2017-Oct-16 20:19N 66°31' E 011°49'412.1
2017-Oct-16 20:00N 66°27' E 011°44'6811.0
2017-Oct-16 13:52N 65°25' E 010°43'411.2
2017-Oct-16 13:30N 65°20' E 010°40'612.3
2017-Oct-16 13:00N 65°15' E 010°32'510.4
2017-Oct-16 12:30N 65°10' E 010°29'5 9.8
2017-Oct-16 12:00N 65°05' E 010°29'510.1
2017-Oct-16 11:30N 65°00' E 010°28'3511.1
2017-Oct-16 08:21N 64°29' E 009°55'411.2
2017-Oct-16 08:00N 64°25' E 009°51'510.7
2017-Oct-16 07:30N 64°20' E 009°47'510.0
2017-Oct-16 07:00N 64°15' E 009°43'5 9.9
2017-Oct-16 06:30N 64°11' E 009°38'5 9.7
2017-Oct-16 06:00N 64°06' E 009°35'510.5
2017-Oct-16 05:30N 64°01' E 009°30'611.1
2017-Oct-16 05:00N 63°56' E 009°26'611.2
2017-Oct-16 04:30N 63°51' E 009°21'510.4
2017-Oct-16 04:00N 63°46' E 009°18'5 9.7
2017-Oct-16 03:31N 63°41' E 009°15'510.1
2017-Oct-16 03:01N 63°36' E 009°16'510.4
2017-Oct-16 02:30N 63°31' E 009°11'612.5
2017-Oct-16 02:00N 63°28' E 008°59'612.0
2017-Oct-16 01:30N 63°27' E 008°46'612.4
2017-Oct-16 01:00N 63°24' E 008°33'612.4
2017-Oct-16 00:30N 63°21' E 008°21'612.5
2017-Oct-16 00:00N 63°17' E 008°11'612.0
2017-Oct-15 23:30N 63°14' E 007°59'611.6
2017-Oct-15 23:00N 63°11' E 007°48'510.8
2017-Oct-15 22:31N 63°07' E 007°41'3 6.9
2017-Oct-15 22:01N 63°03' E 007°39'0 0.0
2017-Oct-15 21:30N 63°03' E 007°39'0 0.0
2017-Oct-15 20:58N 63°03' E 007°39'0 0.0
2017-Oct-15 20:28N 63°03' E 007°39'0 0.0
2017-Oct-15 19:58N 63°03' E 007°39'0 0.0
2017-Oct-15 19:28N 63°03' E 007°40'0 0.0
2017-Oct-15 18:58N 63°03' E 007°39'0 0.0
2017-Oct-15 18:28N 63°03' E 007°39'0 0.0
2017-Oct-15 17:58N 63°03' E 007°39'0 0.1
2017-Oct-15 17:28N 63°03' E 007°40'0 0.1
2017-Oct-15 16:58N 63°03' E 007°39'0 0.0
2017-Oct-15 16:28N 63°03' E 007°39'0 0.0
2017-Oct-15 15:58N 63°03' E 007°39'0 0.0
2017-Oct-15 15:28N 63°03' E 007°39'0 0.0
2017-Oct-15 14:58N 63°03' E 007°39'0 0.0
2017-Oct-15 13:58N 63°03' E 007°39'0 0.0
2017-Oct-15 13:28N 63°03' E 007°39'0 0.0
2017-Oct-15 12:58N 63°03' E 007°39'0 0.0
2017-Oct-15 12:28N 63°03' E 007°39'0 0.0
2017-Oct-15 11:58N 63°03' E 007°39'0 0.0
2017-Oct-15 11:28N 63°03' E 007°39'0 0.0
2017-Oct-15 10:58N 63°03' E 007°39'0 0.0
2017-Oct-15 10:28N 63°03' E 007°39'0 0.0
2017-Oct-15 09:58N 63°03' E 007°39'0 0.0
2017-Oct-15 09:28N 63°03' E 007°39'0 0.0
2017-Oct-15 08:58N 63°03' E 007°39'0 0.0
2017-Oct-15 08:28N 63°03' E 007°39'0 0.0
2017-Oct-15 07:58N 63°03' E 007°39'0 0.0
2017-Oct-15 07:28N 63°03' E 007°39'0 0.1
2017-Oct-15 07:01N 63°03' E 007°40'3 6.4
2017-Oct-15 06:30N 63°07' E 007°41'510.4
2017-Oct-15 06:00N 63°11' E 007°44'510.2
2017-Oct-15 05:30N 63°15' E 007°36'611.4
2017-Oct-15 05:00N 63°14' E 007°23'611.7
2017-Oct-15 04:30N 63°11' E 007°11'612.7
2017-Oct-15 04:00N 63°07' E 007°00'611.8
2017-Oct-15 03:30N 63°03' E 006°50'612.3
2017-Oct-15 03:00N 62°60' E 006°39'611.5
2017-Oct-15 02:30N 62°56' E 006°29'611.3
2017-Oct-15 02:00N 62°53' E 006°19'611.7
2017-Oct-15 01:30N 62°49' E 006°09'611.7
2017-Oct-15 01:00N 62°45' E 006°01'612.2
2017-Oct-15 00:30N 62°40' E 005°52'611.6
2017-Oct-15 00:00N 62°36' E 005°43'510.9
2017-Oct-14 23:30N 62°32' E 005°35'510.7
2017-Oct-14 23:00N 62°28' E 005°27'611.3
2017-Oct-14 22:30N 62°24' E 005°19'612.4
2017-Oct-14 22:00N 62°19' E 005°11'713.0
2017-Oct-14 21:30N 62°13' E 005°03'611.6
2017-Oct-14 21:00N 62°09' E 004°56'510.5
2017-Oct-14 20:30N 62°04' E 004°51'5 9.8
2017-Oct-14 20:00N 61°60' E 004°46'5 9.8
2017-Oct-14 19:30N 61°55' E 004°42'510.5
2017-Oct-14 19:00N 61°50' E 004°37'510.8
2017-Oct-14 18:30N 61°45' E 004°33'611.4
2017-Oct-14 18:00N 61°40' E 004°28'611.5
2017-Oct-14 17:30N 61°35' E 004°26'510.9
2017-Oct-14 17:00N 61°29' E 004°24'510.7
2017-Oct-14 16:30N 61°24' E 004°23'510.9
2017-Oct-14 16:00N 61°18' E 004°22'510.4
2017-Oct-14 15:30N 61°13' E 004°22'510.7
2017-Oct-14 15:00N 61°08' E 004°23'612.1
2017-Oct-14 14:30N 61°02' E 004°23'612.2
2017-Oct-14 14:00N 60°56' E 004°23'612.0
2017-Oct-14 13:30N 60°50' E 004°23'611.4
2017-Oct-14 13:00N 60°44' E 004°25'611.5
2017-Oct-14 12:30N 60°39' E 004°29'611.5
2017-Oct-14 12:00N 60°33' E 004°32'611.5
2017-Oct-14 11:30N 60°28' E 004°36'611.9
2017-Oct-14 11:01N 60°22' E 004°37'611.8
2017-Oct-14 10:30N 60°16' E 004°39'611.6
2017-Oct-14 10:00N 60°10' E 004°41'611.5
2017-Oct-14 09:30N 60°04' E 004°43'511.0
2017-Oct-14 09:00N 59°59' E 004°45'611.0
2017-Oct-14 08:30N 59°54' E 004°47'611.1
2017-Oct-14 08:00N 59°48' E 004°50'611.4
2017-Oct-14 07:30N 59°43' E 004°52'611.7
2017-Oct-14 07:00N 59°37' E 004°53'611.7
2017-Oct-14 06:30N 59°31' E 004°55'612.2
2017-Oct-14 06:00N 59°25' E 004°57'612.0
2017-Oct-14 05:30N 59°19' E 004°59'611.9
2017-Oct-14 05:00N 59°13' E 005°01'611.4
2017-Oct-14 04:30N 59°09' E 005°07'510.2
2017-Oct-14 04:00N 59°07' E 005°16'510.1
2017-Oct-14 03:30N 59°07' E 005°26'510.2
2017-Oct-14 03:01N 59°04' E 005°35'510.6
2017-Oct-14 02:31N 59°01' E 005°43'4 8.1
2017-Oct-14 02:00N 58°57' E 005°46'1 1.5
2017-Oct-14 01:30N 58°57' E 005°45'0 0.0
2017-Oct-14 01:00N 58°57' E 005°45'0 0.0
2017-Oct-14 00:30N 58°57' E 005°45'0 0.0
2017-Oct-14 00:00N 58°57' E 005°45'0 0.0
2017-Oct-13 23:30N 58°57' E 005°45'0 0.0
2017-Oct-13 23:00N 58°57' E 005°45'0 0.0
2017-Oct-13 22:30N 58°57' E 005°45'0 0.0
2017-Oct-13 22:00N 58°57' E 005°45'0 0.0
2017-Oct-13 21:30N 58°57' E 005°45'0 0.0
2017-Oct-13 21:00N 58°57' E 005°45'0 0.0
2017-Oct-13 20:30N 58°57' E 005°45'0 0.0
2017-Oct-13 20:00N 58°57' E 005°45'0 0.0
2017-Oct-13 19:27N 58°57' E 005°45'0 0.0
2017-Oct-13 19:00N 58°57' E 005°45'0 0.0
2017-Oct-13 18:30N 58°57' E 005°45'0 0.0
2017-Oct-13 18:00N 58°57' E 005°45'0 0.0
2017-Oct-13 17:30N 58°57' E 005°45'0 0.0
2017-Oct-13 17:00N 58°57' E 005°45'0 0.0
2017-Oct-13 16:30N 58°57' E 005°45'0 0.0
2017-Oct-13 16:00N 58°57' E 005°45'0 0.0
2017-Oct-13 15:27N 58°57' E 005°45'0 0.0
2017-Oct-13 15:00N 58°57' E 005°45'0 0.0
2017-Oct-13 14:30N 58°57' E 005°45'0 0.0
2017-Oct-13 14:00N 58°57' E 005°45'0 0.0
2017-Oct-13 13:27N 58°57' E 005°45'0 0.0
2017-Oct-13 13:00N 58°57' E 005°45'0 0.0
2017-Oct-13 12:30N 58°57' E 005°45'0 0.0
2017-Oct-13 12:00N 58°57' E 005°45'0 0.0
2017-Oct-13 11:30N 58°57' E 005°45'0 0.0
2017-Oct-13 11:00N 58°57' E 005°45'0 0.0
2017-Oct-13 10:30N 58°57' E 005°45'0 0.0
2017-Oct-13 10:00N 58°57' E 005°45'0 0.0
2017-Oct-13 09:30N 58°57' E 005°45'0 0.0
2017-Oct-13 09:00N 58°57' E 005°45'0 0.0
2017-Oct-13 08:30N 58°57' E 005°45'0 0.0
2017-Oct-13 08:00N 58°57' E 005°45'0 0.0
2017-Oct-13 07:30N 58°57' E 005°45'0 0.0
2017-Oct-13 07:00N 58°57' E 005°45'0 0.0
2017-Oct-13 06:30N 58°57' E 005°45'0 0.0
2017-Oct-13 06:00N 58°57' E 005°45'0 0.3
2017-Oct-13 05:30N 58°57' E 005°46'4 7.1
2017-Oct-13 05:00N 59°00' E 005°46'4 8.8
2017-Oct-13 04:30N 59°02' E 005°38'4 7.4
2017-Oct-13 04:00N 58°59' E 005°33'510.9
2017-Oct-13 03:30N 58°54' E 005°32'510.9
2017-Oct-13 03:00N 58°49' E 005°28'510.8
2017-Oct-13 02:30N 58°43' E 005°26'611.5
2017-Oct-13 02:00N 58°38' E 005°27'611.6
2017-Oct-13 01:30N 58°32' E 005°28'611.5
2017-Oct-13 01:00N 58°26' E 005°29'611.6
2017-Oct-13 00:30N 58°20' E 005°30'611.4
2017-Oct-13 00:00N 58°15' E 005°28'  
Track history (hours):
 
Tides and Currents Weather Stations Pressure Air Temp Water Temp Dewpoint Dewpoint Depression Visibility Wind Speed Wind Dir Waves Ship Positions

Wilson Lahn

Last reported at 2017-Oct-22 20:47 UTC. Time now 2017-Oct-22 23:10 UTC.
Position N 59°43' E 004°38'.

Length 83 m; draft 4.8 m.

Type: Cargo ship. MMSI: 314259000.

Date/timePositionNaut miles runAvg speedWind from/ knotsBaromVisibWave heightAir tempDewpointWater temp
2017-Oct-22 20:47N 59°43' E 004°38'3 9.2
2017-Oct-22 20:30N 59°45' E 004°38'5 9.4
2017-Oct-22 20:00N 59°50' E 004°37'5 9.3
2017-Oct-22 19:30N 59°55' E 004°36'5 9.6
2017-Oct-22 19:00N 59°59' E 004°35'5 9.5
2017-Oct-22 18:30N 60°04' E 004°34'4 8.7
2017-Oct-22 18:00N 60°08' E 004°34'5 8.9
2017-Oct-22 17:30N 60°13' E 004°33'5 9.8
2017-Oct-22 17:00N 60°18' E 004°32'5 9.3
2017-Oct-22 16:30N 60°22' E 004°31'5 9.0
2017-Oct-22 16:00N 60°27' E 004°30'510.0
2017-Oct-22 15:31N 60°32' E 004°29'510.1
2017-Oct-22 15:00N 60°37' E 004°29'5 9.8
2017-Oct-22 14:30N 60°42' E 004°28'5 9.3
2017-Oct-22 14:00N 60°46' E 004°27'5 9.7
2017-Oct-22 13:30N 60°51' E 004°27'5 9.3
2017-Oct-22 13:00N 60°56' E 004°25'5 9.0
2017-Oct-22 12:30N 61°00' E 004°24'4 9.0
2017-Oct-22 12:00N 61°05' E 004°24'5 9.2
2017-Oct-22 11:30N 61°09' E 004°25'5 9.9
2017-Oct-22 11:00N 61°14' E 004°25'510.3
2017-Oct-22 10:30N 61°20' E 004°25'510.7
2017-Oct-22 10:00N 61°25' E 004°27'510.2
2017-Oct-22 09:30N 61°30' E 004°27'510.0
2017-Oct-22 09:00N 61°35' E 004°28'510.0
2017-Oct-22 08:30N 61°40' E 004°29'510.1
2017-Oct-22 08:01N 61°45' E 004°33'5 9.7
2017-Oct-22 07:30N 61°49' E 004°36'5 9.6
2017-Oct-22 06:59N 61°54' E 004°40'5 9.9
2017-Oct-22 06:30N 61°58' E 004°44'510.5
2017-Oct-22 06:00N 62°03' E 004°49'510.8
2017-Oct-22 05:30N 62°08' E 004°55'510.5
2017-Oct-22 05:00N 62°12' E 005°01'5 9.9
2017-Oct-22 04:30N 62°16' E 005°07'510.5
2017-Oct-22 04:00N 62°20' E 005°13'510.9
2017-Oct-22 03:30N 62°25' E 005°20'510.6
2017-Oct-22 03:00N 62°29' E 005°28'610.8
2017-Oct-22 02:30N 62°33' E 005°36'511.0
2017-Oct-22 02:00N 62°37' E 005°44'510.9
2017-Oct-22 01:31N 62°41' E 005°52'611.0
2017-Oct-22 01:00N 62°45' E 005°60'611.1
2017-Oct-22 00:30N 62°49' E 006°08'510.7
2017-Oct-22 00:00N 62°53' E 006°16'510.7
2017-Oct-21 23:30N 62°56' E 006°25'611.0
2017-Oct-21 23:00N 62°59' E 006°35'611.3
2017-Oct-21 22:30N 63°02' E 006°46'611.1
2017-Oct-21 22:00N 63°06' E 006°56'611.0
2017-Oct-21 21:30N 63°09' E 007°06'510.6
2017-Oct-21 21:00N 63°12' E 007°15'510.2
2017-Oct-21 20:30N 63°14' E 007°25'510.5
2017-Oct-21 20:00N 63°15' E 007°36'510.9
2017-Oct-21 19:31N 63°12' E 007°46'611.5
2017-Oct-21 19:00N 63°08' E 007°55'611.1
2017-Oct-21 18:30N 63°07' E 008°07'611.5
2017-Oct-21 18:00N 63°02' E 008°12'612.1
2017-Oct-21 17:30N 62°58' E 008°23'611.1
2017-Oct-21 17:00N 62°59' E 008°35'1 1.8
2017-Oct-21 16:29N 62°59' E 008°36'0 0.0
2017-Oct-21 15:59N 62°59' E 008°36'0 0.0
2017-Oct-21 15:29N 62°59' E 008°36'0 0.0
2017-Oct-21 14:59N 62°59' E 008°36'0 0.0
2017-Oct-21 13:59N 62°59' E 008°36'0 0.0
2017-Oct-21 13:29N 62°59' E 008°36'0 0.0
2017-Oct-21 12:56N 62°59' E 008°36'0 0.0
2017-Oct-21 12:29N 62°59' E 008°36'0 0.0
2017-Oct-21 11:59N 62°59' E 008°36'0 0.0
2017-Oct-21 11:26N 62°59' E 008°36'0 0.0
2017-Oct-21 10:59N 62°59' E 008°36'0 0.0
2017-Oct-21 10:29N 62°59' E 008°36'0 0.0
2017-Oct-21 09:59N 62°59' E 008°36'0 0.0
2017-Oct-21 09:29N 62°59' E 008°36'0 0.0
2017-Oct-21 08:59N 62°59' E 008°36'0 0.0
2017-Oct-21 08:29N 62°59' E 008°36'0 0.0
2017-Oct-21 07:59N 62°59' E 008°36'0 0.0
2017-Oct-21 07:29N 62°59' E 008°36'0 0.0
2017-Oct-21 06:59N 62°59' E 008°36'0 0.0
2017-Oct-21 06:29N 62°59' E 008°36'0 0.0
2017-Oct-21 05:59N 62°59' E 008°36'0 0.0
2017-Oct-21 05:29N 62°59' E 008°36'0 0.0
2017-Oct-21 04:59N 62°59' E 008°36'0 0.0
2017-Oct-21 04:29N 62°59' E 008°36'0 0.0
2017-Oct-21 03:59N 62°59' E 008°36'0 0.0
2017-Oct-21 03:29N 62°59' E 008°36'0 0.0
2017-Oct-21 02:59N 62°59' E 008°36'0 0.0
2017-Oct-21 02:29N 62°59' E 008°36'0 0.0
2017-Oct-21 01:59N 62°59' E 008°36'0 0.0
2017-Oct-21 01:29N 62°59' E 008°36'0 0.0
2017-Oct-21 00:59N 62°59' E 008°36'0 0.0
2017-Oct-21 00:29N 62°59' E 008°36'0 0.0
2017-Oct-20 23:59N 62°59' E 008°36'0 0.0
2017-Oct-20 23:29N 62°59' E 008°36'0 0.0
2017-Oct-20 22:59N 62°59' E 008°36'0 0.0
2017-Oct-20 22:29N 62°59' E 008°36'0 0.0
2017-Oct-20 21:59N 62°59' E 008°36'0 0.0
2017-Oct-20 21:29N 62°59' E 008°36'0 0.0
2017-Oct-20 20:59N 62°59' E 008°36'0 0.0
2017-Oct-20 20:29N 62°59' E 008°36'0 0.0
2017-Oct-20 19:59N 62°59' E 008°36'0 0.0
2017-Oct-20 19:29N 62°59' E 008°36'0 0.0
2017-Oct-20 18:59N 62°59' E 008°36'0 0.0
2017-Oct-20 18:29N 62°59' E 008°36'0 0.0
2017-Oct-20 17:59N 62°59' E 008°36'0 0.0
2017-Oct-20 17:29N 62°59' E 008°36'0 0.0
2017-Oct-20 16:59N 62°59' E 008°36'0 0.0
2017-Oct-20 16:29N 62°59' E 008°36'0 0.0
2017-Oct-20 15:59N 62°59' E 008°36'0 0.0
2017-Oct-20 15:30N 62°59' E 008°36'3 6.0
2017-Oct-20 15:00N 62°58' E 008°31'9 9.0
2017-Oct-20 14:00N 63°02' E 008°13'5 9.9
2017-Oct-20 13:31N 63°06' E 008°08'4 8.7
2017-Oct-20 13:01N 63°07' E 007°59'510.9
2017-Oct-20 12:30N 63°02' E 007°52'510.6
2017-Oct-20 12:00N 62°59' E 007°42'510.2
2017-Oct-20 11:30N 62°56' E 007°33'3 6.4
2017-Oct-20 11:01N 62°56' E 007°26'0 0.0
2017-Oct-20 10:30N 62°56' E 007°26'0 0.0
2017-Oct-20 10:00N 62°56' E 007°26'0 0.0
2017-Oct-20 09:30N 62°56' E 007°26'0 0.0
2017-Oct-20 09:00N 62°56' E 007°26'0 0.0
2017-Oct-20 08:30N 62°56' E 007°26'0 0.0
2017-Oct-20 08:00N 62°56' E 007°26'0 0.0
2017-Oct-20 07:30N 62°56' E 007°26'0 0.0
2017-Oct-20 07:00N 62°56' E 007°26'0 0.0
2017-Oct-20 06:30N 62°56' E 007°26'0 0.0
2017-Oct-20 06:00N 62°56' E 007°26'0 0.0
2017-Oct-20 05:30N 62°56' E 007°26'0 0.0
2017-Oct-20 05:00N 62°56' E 007°26'0 0.0
2017-Oct-20 04:30N 62°56' E 007°26'0 0.0
2017-Oct-20 04:00N 62°56' E 007°26'0 0.0
2017-Oct-20 03:30N 62°56' E 007°26'0 0.1
2017-Oct-20 03:00N 62°56' E 007°26'3 6.4
2017-Oct-20 02:30N 62°56' E 007°33'612.7
2017-Oct-20 02:00N 62°60' E 007°45'612.2
2017-Oct-20 01:30N 63°04' E 007°55'510.6
2017-Oct-20 01:00N 63°09' E 007°51'3 6.2
2017-Oct-20 00:30N 63°12' E 007°51'3 6.0
2017-Oct-20 00:00N 63°13' E 007°56'3 6.5
2017-Oct-19 23:30N 63°15' E 008°03'3 6.4
2017-Oct-19 23:00N 63°17' E 008°09'3 6.5
2017-Oct-19 22:30N 63°19' E 008°15'3 6.6
2017-Oct-19 22:00N 63°21' E 008°20'3 6.9
2017-Oct-19 21:30N 63°23' E 008°27'4 7.7
2017-Oct-19 21:00N 63°24' E 008°34'4 7.3
2017-Oct-19 20:30N 63°26' E 008°42'4 7.3
2017-Oct-19 20:00N 63°27' E 008°50'4 7.7
2017-Oct-19 19:30N 63°28' E 008°57'4 8.0
2017-Oct-19 19:00N 63°30' E 009°06'4 7.1
2017-Oct-19 18:30N 63°32' E 009°13'3 6.4
2017-Oct-19 18:00N 63°35' E 009°16'3 7.1
2017-Oct-19 17:31N 63°38' E 009°15'3 6.9
2017-Oct-19 17:01N 63°42' E 009°15'3 6.7
2017-Oct-19 16:30N 63°45' E 009°16'4 7.4
2017-Oct-19 15:59N 63°49' E 009°19'4 7.7
2017-Oct-19 15:30N 63°52' E 009°22'4 7.7
2017-Oct-19 15:00N 63°55' E 009°25'510.0
2017-Oct-19 14:30N 64°00' E 009°30'510.3
2017-Oct-19 14:00N 64°05' E 009°34'510.2
2017-Oct-19 13:30N 64°10' E 009°38'510.4
2017-Oct-19 13:00N 64°15' E 009°42'510.6
2017-Oct-19 12:30N 64°20' E 009°47'510.5
2017-Oct-19 12:00N 64°25' E 009°50'43 8.8
2017-Oct-19 07:08N 65°05' E 010°26'111.5
2017-Oct-19 07:00N 65°06' E 010°27'611.7
2017-Oct-19 06:29N 65°11' E 010°33'611.2
2017-Oct-19 06:00N 65°17' E 010°38'5 9.2
2017-Oct-19 05:29N 65°21' E 010°42'4 8.6
2017-Oct-19 05:00N 65°25' E 010°45'4 8.8
2017-Oct-19 04:30N 65°29' E 010°49'60 9.0
2017-Oct-18 21:51N 66°25' E 011°44'3 9.0
2017-Oct-18 21:29N 66°28' E 011°47'5 9.3
2017-Oct-18 20:58N 66°32' E 011°52'5 9.3
2017-Oct-18 20:25N 66°37' E 011°57'4 9.7
2017-Oct-18 20:00N 66°40' E 012°03'2310.0
2017-Oct-18 17:43N 66°58' E 012°38'2 9.6
2017-Oct-18 17:30N 67°00' E 012°41'5 9.6
2017-Oct-18 17:00N 67°04' E 012°49'5 9.7
2017-Oct-18 16:30N 67°08' E 012°57'5 9.4
2017-Oct-18 16:00N 67°11' E 013°04'5 9.5
2017-Oct-18 15:30N 67°15' E 013°11'5 9.8
2017-Oct-18 15:00N 67°19' E 013°18'1010.4
2017-Oct-18 14:00N 67°28' E 013°34'510.5
2017-Oct-18 13:30N 67°32' E 013°42'510.0
2017-Oct-18 13:00N 67°36' E 013°50'510.1
2017-Oct-18 12:30N 67°40' E 013°57'510.3
2017-Oct-18 12:00N 67°45' E 014°05'510.1
2017-Oct-18 11:30N 67°49' E 014°12'510.0
2017-Oct-18 11:00N 67°53' E 014°20'510.4
2017-Oct-18 10:30N 67°57' E 014°27'510.1
2017-Oct-18 10:00N 68°01' E 014°35'510.5
2017-Oct-18 09:30N 68°06' E 014°43'510.9
2017-Oct-18 09:00N 68°10' E 014°51'510.6
2017-Oct-18 08:30N 68°15' E 014°57'510.2
2017-Oct-18 08:00N 68°20' E 015°00'510.6
2017-Oct-18 07:30N 68°25' E 015°07'510.0
2017-Oct-18 07:00N 68°29' E 015°13'510.6
2017-Oct-18 06:30N 68°33' E 015°04'3 5.6
2017-Oct-18 06:00N 68°35' E 014°57'0 0.0
2017-Oct-18 05:30N 68°35' E 014°57'0 0.0
2017-Oct-18 05:00N 68°35' E 014°57'0 0.0
2017-Oct-18 04:30N 68°35' E 014°57'0 0.0
2017-Oct-18 04:00N 68°35' E 014°57'0 0.0
2017-Oct-18 03:30N 68°35' E 014°57'0 0.0
2017-Oct-18 03:00N 68°35' E 014°57'0 0.0
2017-Oct-18 02:30N 68°35' E 014°57'0 0.0
2017-Oct-18 02:00N 68°35' E 014°57'0 0.0
2017-Oct-18 01:30N 68°35' E 014°57'0 0.0
2017-Oct-18 01:00N 68°35' E 014°57'0 0.0
2017-Oct-18 00:30N 68°34' E 014°57'0 0.0
2017-Oct-18 00:00N 68°35' E 014°57'0 0.0
2017-Oct-17 23:30N 68°35' E 014°57'0 0.0
2017-Oct-17 23:00N 68°35' E 014°57'0 0.0
2017-Oct-17 22:30N 68°35' E 014°57'0 0.0
2017-Oct-17 22:00N 68°35' E 014°57'0 0.0
2017-Oct-17 21:30N 68°35' E 014°57'0 0.0
2017-Oct-17 21:00N 68°35' E 014°57'0 0.0
2017-Oct-17 20:30N 68°34' E 014°57'0 0.0
2017-Oct-17 20:00N 68°35' E 014°57'0 0.0
2017-Oct-17 19:30N 68°35' E 014°57'0 0.0
2017-Oct-17 19:00N 68°35' E 014°57'0 0.0
2017-Oct-17 18:30N 68°35' E 014°57'0 0.0
2017-Oct-17 18:00N 68°35' E 014°57'0 0.0
2017-Oct-17 17:30N 68°35' E 014°57'0 0.0
2017-Oct-17 17:00N 68°35' E 014°57'0 0.0
2017-Oct-17 16:30N 68°35' E 014°57'0 0.0
2017-Oct-17 16:00N 68°35' E 014°57'1 1.7
2017-Oct-17 15:30N 68°34' E 014°59'611.0
2017-Oct-17 15:00N 68°30' E 015°10'5 9.6
2017-Oct-17 14:30N 68°26' E 015°09'510.7
2017-Oct-17 14:00N 68°21' E 015°02'611.0
2017-Oct-17 13:30N 68°16' E 014°57'4 8.0
2017-Oct-17 13:00N 68°12' E 015°03'611.0
2017-Oct-17 12:30N 68°13' E 015°18'511.0
2017-Oct-17 12:00N 68°13' E 015°33'1 2.3
2017-Oct-17 11:29N 68°12' E 015°32'2 5.0
2017-Oct-17 11:00N 68°10' E 015°27'3 5.5
2017-Oct-17 10:30N 68°08' E 015°21'3 5.6
2017-Oct-17 10:00N 68°07' E 015°16'3 5.9
2017-Oct-17 09:30N 68°05' E 015°09'4 7.2
2017-Oct-17 09:01N 68°03' E 015°02'4 7.4
2017-Oct-17 08:30N 68°00' E 014°54'4 7.3
2017-Oct-17 08:00N 67°58' E 014°46'4 7.2
2017-Oct-17 07:30N 67°56' E 014°39'3 6.9
2017-Oct-17 07:00N 67°54' E 014°32'510.4
2017-Oct-17 06:30N 67°50' E 014°22'611.5
2017-Oct-17 06:00N 67°46' E 014°12'4 7.3
2017-Oct-17 05:30N 67°43' E 014°05'4 7.5
2017-Oct-17 05:01N 67°40' E 013°60'4 7.4
2017-Oct-17 04:30N 67°37' E 013°53'4 7.3
2017-Oct-17 04:00N 67°34' E 013°48'4 7.4
2017-Oct-17 03:30N 67°31' E 013°42'4 8.2
2017-Oct-17 03:00N 67°28' E 013°35'4 8.9
2017-Oct-17 02:30N 67°25' E 013°28'510.0
2017-Oct-17 02:00N 67°21' E 013°20'510.9
2017-Oct-17 01:30N 67°16' E 013°12'510.7
2017-Oct-17 01:00N 67°12' E 013°05'610.8
2017-Oct-17 00:29N 67°07' E 012°56'510.9
2017-Oct-17 00:00N 67°03' E 012°48'510.4
2017-Oct-16 23:30N 66°59' E 012°40'2710.6
2017-Oct-16 20:59N 66°37' E 011°59'811.8
2017-Oct-16 20:19N 66°31' E 011°49'412.1
2017-Oct-16 20:00N 66°27' E 011°44'6811.0
2017-Oct-16 13:52N 65°25' E 010°43'411.2
2017-Oct-16 13:30N 65°20' E 010°40'612.3
2017-Oct-16 13:00N 65°15' E 010°32'510.4
2017-Oct-16 12:30N 65°10' E 010°29'5 9.8
2017-Oct-16 12:00N 65°05' E 010°29'510.1
2017-Oct-16 11:30N 65°00' E 010°28'3511.1
2017-Oct-16 08:21N 64°29' E 009°55'411.2
2017-Oct-16 08:00N 64°25' E 009°51'510.7
2017-Oct-16 07:30N 64°20' E 009°47'510.0
2017-Oct-16 07:00N 64°15' E 009°43'5 9.9
2017-Oct-16 06:30N 64°11' E 009°38'5 9.7
2017-Oct-16 06:00N 64°06' E 009°35'510.5
2017-Oct-16 05:30N 64°01' E 009°30'611.1
2017-Oct-16 05:00N 63°56' E 009°26'611.2
2017-Oct-16 04:30N 63°51' E 009°21'510.4
2017-Oct-16 04:00N 63°46' E 009°18'5 9.7
2017-Oct-16 03:31N 63°41' E 009°15'510.1
2017-Oct-16 03:01N 63°36' E 009°16'510.4
2017-Oct-16 02:30N 63°31' E 009°11'612.5
2017-Oct-16 02:00N 63°28' E 008°59'612.0
2017-Oct-16 01:30N 63°27' E 008°46'612.4
2017-Oct-16 01:00N 63°24' E 008°33'612.4
2017-Oct-16 00:30N 63°21' E 008°21'612.5
2017-Oct-16 00:00N 63°17' E 008°11'612.0
2017-Oct-15 23:30N 63°14' E 007°59'611.6
2017-Oct-15 23:00N 63°11' E 007°48'510.8
2017-Oct-15 22:31N 63°07' E 007°41'3 6.9
2017-Oct-15 22:01N 63°03' E 007°39'0 0.0
2017-Oct-15 21:30N 63°03' E 007°39'0 0.0
2017-Oct-15 20:58N 63°03' E 007°39'0 0.0
2017-Oct-15 20:28N 63°03' E 007°39'0 0.0
2017-Oct-15 19:58N 63°03' E 007°39'0 0.0
2017-Oct-15 19:28N 63°03' E 007°40'0 0.0
2017-Oct-15 18:58N 63°03' E 007°39'0 0.0
2017-Oct-15 18:28N 63°03' E 007°39'0 0.0
2017-Oct-15 17:58N 63°03' E 007°39'0 0.1
2017-Oct-15 17:28N 63°03' E 007°40'0 0.1
2017-Oct-15 16:58N 63°03' E 007°39'0 0.0
2017-Oct-15 16:28N 63°03' E 007°39'0 0.0
2017-Oct-15 15:58N 63°03' E 007°39'0 0.0
2017-Oct-15 15:28N 63°03' E 007°39'0 0.0
2017-Oct-15 14:58N 63°03' E 007°39'0 0.0
2017-Oct-15 13:58N 63°03' E 007°39'0 0.0
2017-Oct-15 13:28N 63°03' E 007°39'0 0.0
2017-Oct-15 12:58N 63°03' E 007°39'0 0.0
2017-Oct-15 12:28N 63°03' E 007°39'0 0.0
2017-Oct-15 11:58N 63°03' E 007°39'0 0.0
2017-Oct-15 11:28N 63°03' E 007°39'0 0.0
2017-Oct-15 10:58N 63°03' E 007°39'0 0.0
2017-Oct-15 10:28N 63°03' E 007°39'0 0.0
2017-Oct-15 09:58N 63°03' E 007°39'0 0.0
2017-Oct-15 09:28N 63°03' E 007°39'0 0.0
2017-Oct-15 08:58N 63°03' E 007°39'0 0.0
2017-Oct-15 08:28N 63°03' E 007°39'0 0.0
2017-Oct-15 07:58N 63°03' E 007°39'0 0.0
2017-Oct-15 07:28N 63°03' E 007°39'0 0.1
2017-Oct-15 07:01N 63°03' E 007°40'3 6.4
2017-Oct-15 06:30N 63°07' E 007°41'510.4
2017-Oct-15 06:00N 63°11' E 007°44'510.2
2017-Oct-15 05:30N 63°15' E 007°36'611.4
2017-Oct-15 05:00N 63°14' E 007°23'611.7
2017-Oct-15 04:30N 63°11' E 007°11'612.7
2017-Oct-15 04:00N 63°07' E 007°00'611.8
2017-Oct-15 03:30N 63°03' E 006°50'612.3
2017-Oct-15 03:00N 62°60' E 006°39'611.5
2017-Oct-15 02:30N 62°56' E 006°29'611.3
2017-Oct-15 02:00N 62°53' E 006°19'611.7
2017-Oct-15 01:30N 62°49' E 006°09'611.7
2017-Oct-15 01:00N 62°45' E 006°01'612.2
2017-Oct-15 00:30N 62°40' E 005°52'611.6
2017-Oct-15 00:00N 62°36' E 005°43'510.9
2017-Oct-14 23:30N 62°32' E 005°35'510.7
2017-Oct-14 23:00N 62°28' E 005°27'611.3
2017-Oct-14 22:30N 62°24' E 005°19'612.4
2017-Oct-14 22:00N 62°19' E 005°11'713.0
2017-Oct-14 21:30N 62°13' E 005°03'611.6
2017-Oct-14 21:00N 62°09' E 004°56'510.5
2017-Oct-14 20:30N 62°04' E 004°51'5 9.8
2017-Oct-14 20:00N 61°60' E 004°46'5 9.8
2017-Oct-14 19:30N 61°55' E 004°42'510.5
2017-Oct-14 19:00N 61°50' E 004°37'510.8
2017-Oct-14 18:30N 61°45' E 004°33'611.4
2017-Oct-14 18:00N 61°40' E 004°28'611.5
2017-Oct-14 17:30N 61°35' E 004°26'510.9
2017-Oct-14 17:00N 61°29' E 004°24'510.7
2017-Oct-14 16:30N 61°24' E 004°23'510.9
2017-Oct-14 16:00N 61°18' E 004°22'510.4
2017-Oct-14 15:30N 61°13' E 004°22'510.7
2017-Oct-14 15:00N 61°08' E 004°23'612.1
2017-Oct-14 14:30N 61°02' E 004°23'612.2
2017-Oct-14 14:00N 60°56' E 004°23'612.0
2017-Oct-14 13:30N 60°50' E 004°23'611.4
2017-Oct-14 13:00N 60°44' E 004°25'611.5
2017-Oct-14 12:30N 60°39' E 004°29'611.5
2017-Oct-14 12:00N 60°33' E 004°32'611.5
2017-Oct-14 11:30N 60°28' E 004°36'611.9
2017-Oct-14 11:01N 60°22' E 004°37'611.8
2017-Oct-14 10:30N 60°16' E 004°39'611.6
2017-Oct-14 10:00N 60°10' E 004°41'611.5
2017-Oct-14 09:30N 60°04' E 004°43'511.0
2017-Oct-14 09:00N 59°59' E 004°45'611.0
2017-Oct-14 08:30N 59°54' E 004°47'611.1
2017-Oct-14 08:00N 59°48' E 004°50'611.4
2017-Oct-14 07:30N 59°43' E 004°52'611.7
2017-Oct-14 07:00N 59°37' E 004°53'611.7
2017-Oct-14 06:30N 59°31' E 004°55'612.2
2017-Oct-14 06:00N 59°25' E 004°57'612.0
2017-Oct-14 05:30N 59°19' E 004°59'611.9
2017-Oct-14 05:00N 59°13' E 005°01'611.4
2017-Oct-14 04:30N 59°09' E 005°07'510.2
2017-Oct-14 04:00N 59°07' E 005°16'510.1
2017-Oct-14 03:30N 59°07' E 005°26'510.2
2017-Oct-14 03:01N 59°04' E 005°35'510.6
2017-Oct-14 02:31N 59°01' E 005°43'4 8.1
2017-Oct-14 02:00N 58°57' E 005°46'1 1.5
2017-Oct-14 01:30N 58°57' E 005°45'0 0.0
2017-Oct-14 01:00N 58°57' E 005°45'0 0.0
2017-Oct-14 00:30N 58°57' E 005°45'0 0.0
2017-Oct-14 00:00N 58°57' E 005°45'0 0.0
2017-Oct-13 23:30N 58°57' E 005°45'0 0.0
2017-Oct-13 23:00N 58°57' E 005°45'0 0.0
2017-Oct-13 22:30N 58°57' E 005°45'0 0.0
2017-Oct-13 22:00N 58°57' E 005°45'0 0.0
2017-Oct-13 21:30N 58°57' E 005°45'0 0.0
2017-Oct-13 21:00N 58°57' E 005°45'0 0.0
2017-Oct-13 20:30N 58°57' E 005°45'0 0.0
2017-Oct-13 20:00N 58°57' E 005°45'0 0.0
2017-Oct-13 19:27N 58°57' E 005°45'0 0.0
2017-Oct-13 19:00N 58°57' E 005°45'0 0.0
2017-Oct-13 18:30N 58°57' E 005°45'0 0.0
2017-Oct-13 18:00N 58°57' E 005°45'0 0.0
2017-Oct-13 17:30N 58°57' E 005°45'0 0.0
2017-Oct-13 17:00N 58°57' E 005°45'0 0.0
2017-Oct-13 16:30N 58°57' E 005°45'0 0.0
2017-Oct-13 16:00N 58°57' E 005°45'0 0.0
2017-Oct-13 15:27N 58°57' E 005°45'0 0.0
2017-Oct-13 15:00N 58°57' E 005°45'0 0.0
2017-Oct-13 14:30N 58°57' E 005°45'0 0.0
2017-Oct-13 14:00N 58°57' E 005°45'0 0.0
2017-Oct-13 13:27N 58°57' E 005°45'0 0.0
2017-Oct-13 13:00N 58°57' E 005°45'0 0.0
2017-Oct-13 12:30N 58°57' E 005°45'0 0.0
2017-Oct-13 12:00N 58°57' E 005°45'0 0.0
2017-Oct-13 11:30N 58°57' E 005°45'0 0.0
2017-Oct-13 11:00N 58°57' E 005°45'0 0.0
2017-Oct-13 10:30N 58°57' E 005°45'0 0.0
2017-Oct-13 10:00N 58°57' E 005°45'0 0.0
2017-Oct-13 09:30N 58°57' E 005°45'0 0.0
2017-Oct-13 09:00N 58°57' E 005°45'0 0.0
2017-Oct-13 08:30N 58°57' E 005°45'0 0.0
2017-Oct-13 08:00N 58°57' E 005°45'0 0.0
2017-Oct-13 07:30N 58°57' E 005°45'0 0.0
2017-Oct-13 07:00N 58°57' E 005°45'0 0.0
2017-Oct-13 06:30N 58°57' E 005°45'0 0.0
2017-Oct-13 06:00N 58°57' E 005°45'0 0.3
2017-Oct-13 05:30N 58°57' E 005°46'4 7.1
2017-Oct-13 05:00N 59°00' E 005°46'4 8.8
2017-Oct-13 04:30N 59°02' E 005°38'4 7.4
2017-Oct-13 04:00N 58°59' E 005°33'510.9
2017-Oct-13 03:30N 58°54' E 005°32'510.9
2017-Oct-13 03:00N 58°49' E 005°28'510.8
2017-Oct-13 02:30N 58°43' E 005°26'611.5
2017-Oct-13 02:00N 58°38' E 005°27'611.6
2017-Oct-13 01:30N 58°32' E 005°28'611.5
2017-Oct-13 01:00N 58°26' E 005°29'611.6
2017-Oct-13 00:30N 58°20' E 005°30'611.4
2017-Oct-13 00:00N 58°15' E 005°28'  

Dump ship's entire track history